createdAt,value
2019-02-16T00:00:38.735Z,0.00
2019-02-16T00:01:38.653Z,0.00
2019-02-16T00:02:38.615Z,0.00
2019-02-16T00:03:38.581Z,0.00
2019-02-16T00:04:38.525Z,0.00
2019-02-16T00:05:38.512Z,0.00
2019-02-16T00:06:38.468Z,0.00
2019-02-16T00:07:38.392Z,0.00
2019-02-16T00:08:38.348Z,0.00
2019-02-16T00:09:38.308Z,0.00
2019-02-16T00:10:38.341Z,0.00
2019-02-16T00:11:38.243Z,0.00
2019-02-16T00:12:38.184Z,0.00
2019-02-16T00:13:46.889Z,0.00
2019-02-16T00:14:38.107Z,0.00
2019-02-16T00:15:38.051Z,0.00
2019-02-16T00:16:38.037Z,0.00
2019-02-16T00:17:37.957Z,0.00
2019-02-16T00:18:37.918Z,0.00
2019-02-16T00:19:37.885Z,0.00
2019-02-16T00:20:37.847Z,0.00
2019-02-16T00:21:37.800Z,0.00
2019-02-16T00:22:37.794Z,0.00
2019-02-16T00:23:37.726Z,0.00
2019-02-16T00:24:37.663Z,0.00
2019-02-16T00:25:37.624Z,0.00
2019-02-16T00:26:37.643Z,0.00
2019-02-16T00:27:37.529Z,0.00
2019-02-16T00:28:37.531Z,0.00
2019-02-16T00:29:37.454Z,0.00
2019-02-16T00:30:37.409Z,0.00
2019-02-16T00:31:37.391Z,0.00
2019-02-16T00:32:37.354Z,0.00
2019-02-16T00:33:37.282Z,0.00
2019-02-16T00:34:37.248Z,0.00
2019-02-16T00:35:37.207Z,0.00
2019-02-16T00:36:37.145Z,0.00
2019-02-16T00:37:37.142Z,0.00
2019-02-16T00:38:37.297Z,0.00
2019-02-16T00:39:37.027Z,0.00
2019-02-16T00:40:36.993Z,0.00
2019-02-16T00:41:36.948Z,0.00
2019-02-16T00:42:36.895Z,0.00
2019-02-16T00:43:36.895Z,0.00
2019-02-16T00:44:36.808Z,0.00
2019-02-16T00:45:36.762Z,0.00
2019-02-16T00:46:36.721Z,0.00
2019-02-16T00:47:36.682Z,0.00
2019-02-16T00:48:36.655Z,0.00
2019-02-16T00:49:36.604Z,0.00
2019-02-16T00:50:36.550Z,0.00
2019-02-16T00:51:36.515Z,0.00
2019-02-16T00:52:36.466Z,0.00
2019-02-16T00:53:36.452Z,0.00
2019-02-16T00:54:36.413Z,0.00
2019-02-16T00:55:36.356Z,0.00
2019-02-16T00:56:36.321Z,0.00
2019-02-16T00:57:36.280Z,0.00
2019-02-16T00:58:36.232Z,0.00
2019-02-16T00:59:36.197Z,0.00
2019-02-16T01:00:36.130Z,0.00
2019-02-16T01:01:36.078Z,0.00
2019-02-16T01:02:36.036Z,0.00
2019-02-16T01:03:36.033Z,0.00
2019-02-16T01:04:35.979Z,0.00
2019-02-16T01:05:35.915Z,0.00
2019-02-16T01:06:35.866Z,0.00
2019-02-16T01:07:35.825Z,0.00
2019-02-16T01:08:35.829Z,0.00
2019-02-16T01:09:35.728Z,0.00
2019-02-16T01:10:35.688Z,0.00
2019-02-16T01:11:35.652Z,0.00
2019-02-16T01:12:35.601Z,0.00
2019-02-16T01:13:35.600Z,0.00
2019-02-16T01:14:35.522Z,0.00
2019-02-16T01:15:35.471Z,0.00
2019-02-16T01:16:35.435Z,0.00
2019-02-16T01:17:35.392Z,0.00
2019-02-16T01:18:35.383Z,0.00
2019-02-16T01:19:35.326Z,0.00
2019-02-16T01:20:35.281Z,0.00
2019-02-16T01:21:35.214Z,0.00
2019-02-16T01:22:35.169Z,0.00
2019-02-16T01:23:35.123Z,0.00
2019-02-16T01:24:35.126Z,0.00
2019-02-16T01:25:35.081Z,0.00
2019-02-16T01:26:35.012Z,0.00
2019-02-16T01:27:34.957Z,0.00
2019-02-16T01:28:34.912Z,0.00
2019-02-16T01:29:34.871Z,0.00
2019-02-16T01:30:34.869Z,0.00
2019-02-16T01:31:34.800Z,0.00
2019-02-16T01:32:34.760Z,0.00
2019-02-16T01:33:34.700Z,0.00
2019-02-16T01:34:34.663Z,0.00
2019-02-16T01:35:34.623Z,0.00
2019-02-16T01:36:34.605Z,0.00
2019-02-16T01:37:34.544Z,0.00
2019-02-16T01:38:34.497Z,0.00
2019-02-16T01:39:34.445Z,0.00
2019-02-16T01:40:34.420Z,0.00
2019-02-16T01:41:34.359Z,0.00
2019-02-16T01:42:34.302Z,0.00
2019-02-16T01:43:34.276Z,0.00
2019-02-16T01:44:34.250Z,0.00
2019-02-16T01:45:34.213Z,0.00
2019-02-16T01:46:34.128Z,0.00
2019-02-16T01:47:34.083Z,0.00
2019-02-16T01:48:34.060Z,0.00
2019-02-16T01:49:34.015Z,0.00
2019-02-16T01:50:33.971Z,0.00
2019-02-16T01:51:33.946Z,0.00
2019-02-16T01:52:33.875Z,0.00
2019-02-16T01:53:33.833Z,0.00
2019-02-16T01:54:33.793Z,0.00
2019-02-16T01:55:33.783Z,0.00
2019-02-16T01:56:33.714Z,0.00
2019-02-16T01:57:33.677Z,0.00
2019-02-16T01:58:33.646Z,0.00
2019-02-16T01:59:33.564Z,0.00
2019-02-16T02:00:33.546Z,0.00
2019-02-16T02:01:33.515Z,0.00
2019-02-16T02:02:33.447Z,0.00
2019-02-16T02:03:33.425Z,0.00
2019-02-16T02:04:33.404Z,0.00
2019-02-16T02:05:33.334Z,0.00
2019-02-16T02:06:33.301Z,0.00
2019-02-16T02:07:33.225Z,0.00
2019-02-16T02:08:33.197Z,0.00
2019-02-16T02:09:33.144Z,0.00
2019-02-16T02:10:33.101Z,0.00
2019-02-16T02:11:33.067Z,0.00
2019-02-16T02:12:33.031Z,0.00
2019-02-16T02:13:32.962Z,0.00
2019-02-16T02:14:32.926Z,0.00
2019-02-16T02:15:32.910Z,0.00
2019-02-16T02:16:32.833Z,0.00
2019-02-16T02:17:32.813Z,0.00
2019-02-16T02:18:32.744Z,0.00
2019-02-16T02:19:32.705Z,0.00
2019-02-16T02:20:32.659Z,0.00
2019-02-16T02:21:40.666Z,0.00
2019-02-16T02:22:32.618Z,0.00
2019-02-16T02:23:32.541Z,0.00
2019-02-16T02:24:32.482Z,0.00
2019-02-16T02:25:32.437Z,0.00
2019-02-16T02:26:32.399Z,0.00
2019-02-16T02:27:32.354Z,0.00
2019-02-16T02:28:32.333Z,0.00
2019-02-16T02:29:32.259Z,0.00
2019-02-16T02:30:32.240Z,0.00
2019-02-16T02:31:32.182Z,0.00
2019-02-16T02:32:32.140Z,0.00
2019-02-16T02:33:32.110Z,0.00
2019-02-16T02:34:32.068Z,0.00
2019-02-16T02:35:32.008Z,0.00
2019-02-16T02:36:31.954Z,0.00
2019-02-16T02:37:31.910Z,0.00
2019-02-16T02:38:31.899Z,0.00
2019-02-16T02:39:31.825Z,0.00
2019-02-16T02:40:31.782Z,0.00
2019-02-16T02:41:31.755Z,0.00
2019-02-16T02:42:31.703Z,0.00
2019-02-16T02:43:31.649Z,0.00
2019-02-16T02:44:31.628Z,0.00
2019-02-16T02:45:31.584Z,0.00
2019-02-16T02:46:31.513Z,0.00
2019-02-16T02:47:31.488Z,0.00
2019-02-16T02:48:31.439Z,0.00
2019-02-16T02:49:31.407Z,0.00
2019-02-16T02:50:31.356Z,0.00
2019-02-16T02:51:31.305Z,0.00
2019-02-16T02:52:31.564Z,0.00
2019-02-16T02:53:31.897Z,0.00
2019-02-16T02:54:31.193Z,0.00
2019-02-16T02:55:31.131Z,0.00
2019-02-16T02:56:31.067Z,0.00
2019-02-16T02:57:31.045Z,0.00
2019-02-16T02:58:30.982Z,0.00
2019-02-16T02:59:30.942Z,0.00
2019-02-16T03:00:30.929Z,0.00
2019-02-16T03:01:30.861Z,0.00
2019-02-16T03:02:30.835Z,0.00
2019-02-16T03:03:30.771Z,0.00
2019-02-16T03:04:30.727Z,0.00
2019-02-16T03:05:30.703Z,0.00
2019-02-16T03:06:30.633Z,0.00
2019-02-16T03:07:30.605Z,0.00
2019-02-16T03:08:30.536Z,0.00
2019-02-16T03:09:30.488Z,0.00
2019-02-16T03:10:30.473Z,0.00
2019-02-16T03:11:30.414Z,0.00
2019-02-16T03:12:30.392Z,0.00
2019-02-16T03:13:30.333Z,0.00
2019-02-16T03:14:30.309Z,0.00
2019-02-16T03:15:30.251Z,0.00
2019-02-16T03:16:30.189Z,0.00
2019-02-16T03:17:30.185Z,0.00
2019-02-16T03:18:30.098Z,0.00
2019-02-16T03:19:30.064Z,0.00
2019-02-16T03:20:30.038Z,0.00
2019-02-16T03:21:29.981Z,0.00
2019-02-16T03:22:29.949Z,0.00
2019-02-16T03:23:29.897Z,0.00
2019-02-16T03:24:29.849Z,0.00
2019-02-16T03:25:29.795Z,0.00
2019-02-16T03:26:29.774Z,0.00
2019-02-16T03:27:29.704Z,0.00
2019-02-16T03:28:29.649Z,0.00
2019-02-16T03:29:29.610Z,0.00
2019-02-16T03:30:29.567Z,0.00
2019-02-16T03:31:29.576Z,0.00
2019-02-16T03:32:29.493Z,0.00
2019-02-16T03:33:29.473Z,0.00
2019-02-16T03:34:29.404Z,0.00
2019-02-16T03:35:29.357Z,0.00
2019-02-16T03:36:29.306Z,0.00
2019-02-16T03:37:29.278Z,0.00
2019-02-16T03:38:29.212Z,0.00
2019-02-16T03:39:29.233Z,0.00
2019-02-16T03:40:29.127Z,0.00
2019-02-16T03:41:29.080Z,0.00
2019-02-16T03:42:29.065Z,0.00
2019-02-16T03:43:29.002Z,0.00
2019-02-16T03:44:28.995Z,0.00
2019-02-16T03:45:28.917Z,0.00
2019-02-16T03:46:28.872Z,0.00
2019-02-16T03:47:28.817Z,0.00
2019-02-16T03:48:28.777Z,0.00
2019-02-16T03:49:28.768Z,0.00
2019-02-16T03:50:28.717Z,0.00
2019-02-16T03:51:28.649Z,0.00
2019-02-16T03:52:28.608Z,0.00
2019-02-16T03:53:28.587Z,0.00
2019-02-16T03:54:28.519Z,0.00
2019-02-16T03:55:28.465Z,0.00
2019-02-16T03:56:28.439Z,0.00
2019-02-16T03:57:28.381Z,0.00
2019-02-16T03:58:28.348Z,0.00
2019-02-16T03:59:28.309Z,0.00
2019-02-16T04:00:28.253Z,0.00
2019-02-16T04:01:28.201Z,0.00
2019-02-16T04:02:28.158Z,0.00
2019-02-16T04:03:28.128Z,0.00
2019-02-16T04:04:28.107Z,0.00
2019-02-16T04:05:28.054Z,0.00
2019-02-16T04:06:27.999Z,0.00
2019-02-16T04:07:27.941Z,0.00
2019-02-16T04:08:27.906Z,0.00
2019-02-16T04:09:27.880Z,0.00
2019-02-16T04:10:27.817Z,0.00
2019-02-16T04:11:27.779Z,0.00
2019-02-16T04:12:27.724Z,0.00
2019-02-16T04:13:27.668Z,0.00
2019-02-16T04:14:27.657Z,0.00
2019-02-16T04:15:27.607Z,0.00
2019-02-16T04:16:27.538Z,0.00
2019-02-16T04:17:27.525Z,0.00
2019-02-16T04:18:27.453Z,0.00
2019-02-16T04:19:27.402Z,0.00
2019-02-16T04:20:27.398Z,0.00
2019-02-16T04:21:27.314Z,0.00
2019-02-16T04:22:27.270Z,0.00
2019-02-16T04:23:27.257Z,0.00
2019-02-16T04:24:27.205Z,0.00
2019-02-16T04:25:27.176Z,0.00
2019-02-16T04:26:27.119Z,0.00
2019-02-16T04:27:27.056Z,0.00
2019-02-16T04:28:27.000Z,0.00
2019-02-16T04:29:26.995Z,0.00
2019-02-16T04:30:26.949Z,0.00
2019-02-16T04:31:26.880Z,0.00
2019-02-16T04:32:26.830Z,0.00
2019-02-16T04:33:26.783Z,0.00
2019-02-16T04:34:26.751Z,0.00
2019-02-16T04:35:26.719Z,0.00
2019-02-16T04:36:26.676Z,0.00
2019-02-16T04:37:26.625Z,0.00
2019-02-16T04:38:26.561Z,0.00
2019-02-16T04:39:26.521Z,0.00
2019-02-16T04:40:26.478Z,0.00
2019-02-16T04:41:26.488Z,0.00
2019-02-16T04:42:26.398Z,0.00
2019-02-16T04:43:26.341Z,0.00
2019-02-16T04:44:26.306Z,0.00
2019-02-16T04:45:26.263Z,0.00
2019-02-16T04:46:26.232Z,0.00
2019-02-16T04:47:26.176Z,0.00
2019-02-16T04:48:26.128Z,0.00
2019-02-16T04:49:26.088Z,0.00
2019-02-16T04:50:26.055Z,0.00
2019-02-16T04:51:26.018Z,0.00
2019-02-16T04:52:34.419Z,0.00
2019-02-16T04:53:25.891Z,0.00
2019-02-16T04:54:25.871Z,0.00
2019-02-16T04:55:25.824Z,0.00
2019-02-16T04:56:25.767Z,0.00
2019-02-16T04:57:25.742Z,0.00
2019-02-16T04:58:25.702Z,0.00
2019-02-16T04:59:25.651Z,0.00
2019-02-16T05:00:25.584Z,0.00
2019-02-16T05:01:25.556Z,0.00
2019-02-16T05:02:25.495Z,0.00
2019-02-16T05:03:25.467Z,0.00
2019-02-16T05:04:25.434Z,0.00
2019-02-16T05:05:25.361Z,0.00
2019-02-16T05:06:25.332Z,0.00
2019-02-16T05:07:25.302Z,0.00
2019-02-16T05:08:25.241Z,0.00
2019-02-16T05:09:25.231Z,0.00
2019-02-16T05:10:25.148Z,0.00
2019-02-16T05:11:25.109Z,0.00
2019-02-16T05:12:25.066Z,0.00
2019-02-16T05:13:25.029Z,0.00
2019-02-16T05:14:25.000Z,0.00
2019-02-16T05:15:24.922Z,0.00
2019-02-16T05:16:24.899Z,0.00
2019-02-16T05:17:24.836Z,0.00
2019-02-16T05:18:24.813Z,0.00
2019-02-16T05:19:24.747Z,0.00
2019-02-16T05:20:24.724Z,0.00
2019-02-16T05:21:24.671Z,0.00
2019-02-16T05:22:24.603Z,0.00
2019-02-16T05:23:24.594Z,0.00
2019-02-16T05:24:24.539Z,0.00
2019-02-16T05:25:24.463Z,0.00
2019-02-16T05:26:24.425Z,0.00
2019-02-16T05:27:24.393Z,0.00
2019-02-16T05:28:24.350Z,0.00
2019-02-16T05:29:24.335Z,0.00
2019-02-16T05:30:24.254Z,0.00
2019-02-16T05:31:24.236Z,0.00
2019-02-16T05:32:24.173Z,0.00
2019-02-16T05:33:24.161Z,0.00
2019-02-16T05:34:24.072Z,0.00
2019-02-16T05:35:24.029Z,0.00
2019-02-16T05:36:24.011Z,0.00
2019-02-16T05:37:23.932Z,0.00
2019-02-16T05:38:23.909Z,0.00
2019-02-16T05:39:23.862Z,0.00
2019-02-16T05:40:23.806Z,0.00
2019-02-16T05:41:23.812Z,0.00
2019-02-16T05:42:23.722Z,0.00
2019-02-16T05:43:23.670Z,0.00
2019-02-16T05:44:23.621Z,0.00
2019-02-16T05:45:23.603Z,0.00
2019-02-16T05:46:24.699Z,0.00
2019-02-16T05:47:23.479Z,0.00
2019-02-16T05:48:23.454Z,0.00
2019-02-16T05:49:23.399Z,0.00
2019-02-16T05:50:23.373Z,0.00
2019-02-16T05:51:23.318Z,0.00
2019-02-16T05:52:23.303Z,0.00
2019-02-16T05:53:23.236Z,0.00
2019-02-16T05:54:23.202Z,0.00
2019-02-16T05:55:23.144Z,0.00
2019-02-16T05:56:23.094Z,0.00
2019-02-16T05:57:23.054Z,0.00
2019-02-16T05:58:23.046Z,0.00
2019-02-16T05:59:22.960Z,0.00
2019-02-16T06:00:22.923Z,0.00
2019-02-16T06:01:22.869Z,0.00
2019-02-16T06:02:22.843Z,0.00
2019-02-16T06:03:22.794Z,0.00
2019-02-16T06:04:22.775Z,0.00
2019-02-16T06:05:22.700Z,0.00
2019-02-16T06:06:22.682Z,0.00
2019-02-16T06:07:22.592Z,0.00
2019-02-16T06:08:22.556Z,0.00
2019-02-16T06:09:22.504Z,4.00
2019-02-16T06:10:22.492Z,0.00
2019-02-16T06:11:22.420Z,0.00
2019-02-16T06:12:22.405Z,4.00
2019-02-16T06:13:22.324Z,0.00
2019-02-16T06:14:22.294Z,4.00
2019-02-16T06:15:22.238Z,4.00
2019-02-16T06:16:22.198Z,8.00
2019-02-16T06:17:22.151Z,8.00
2019-02-16T06:18:22.124Z,8.00
2019-02-16T06:19:22.055Z,8.00
2019-02-16T06:20:22.019Z,12.00
2019-02-16T06:21:21.969Z,16.00
2019-02-16T06:22:21.937Z,20.00
2019-02-16T06:23:21.881Z,24.00
2019-02-16T06:24:21.850Z,28.00
2019-02-16T06:25:21.785Z,28.00
2019-02-16T06:26:21.735Z,36.00
2019-02-16T06:27:21.707Z,44.00
2019-02-16T06:28:21.649Z,52.00
2019-02-16T06:29:21.591Z,64.00
2019-02-16T06:30:21.566Z,72.00
2019-02-16T06:31:21.540Z,84.00
2019-02-16T06:32:21.474Z,100.00
2019-02-16T06:33:21.413Z,116.00
2019-02-16T06:34:21.361Z,128.00
2019-02-16T06:35:21.337Z,148.00
2019-02-16T06:36:21.290Z,168.00
2019-02-16T06:37:21.277Z,188.00
2019-02-16T06:38:21.211Z,212.00
2019-02-16T06:39:21.133Z,240.00
2019-02-16T06:40:21.099Z,264.00
2019-02-16T06:41:21.047Z,292.00
2019-02-16T06:42:21.028Z,320.00
2019-02-16T06:43:20.988Z,352.00
2019-02-16T06:44:20.933Z,388.00
2019-02-16T06:45:20.883Z,420.00
2019-02-16T06:46:20.853Z,460.00
2019-02-16T06:47:20.797Z,496.00
2019-02-16T06:48:20.751Z,536.00
2019-02-16T06:49:20.702Z,580.00
2019-02-16T06:50:20.645Z,620.00
2019-02-16T06:51:20.592Z,660.00
2019-02-16T06:52:20.539Z,708.00
2019-02-16T06:53:20.546Z,752.00
2019-02-16T06:54:20.455Z,796.00
2019-02-16T06:55:20.415Z,844.00
2019-02-16T06:56:20.387Z,892.00
2019-02-16T06:57:20.347Z,940.00
2019-02-16T06:58:20.264Z,992.00
2019-02-16T06:59:20.256Z,1040.00
2019-02-16T07:00:20.195Z,1088.00
2019-02-16T07:01:20.153Z,1136.00
2019-02-16T07:02:20.079Z,1188.00
2019-02-16T07:03:20.071Z,1236.00
2019-02-16T07:04:20.007Z,1288.00
2019-02-16T07:05:19.992Z,1340.00
2019-02-16T07:06:19.896Z,1388.00
2019-02-16T07:07:19.876Z,1440.00
2019-02-16T07:08:19.808Z,1492.00
2019-02-16T07:09:19.781Z,1544.00
2019-02-16T07:10:19.750Z,1596.00
2019-02-16T07:11:19.682Z,1640.00
2019-02-16T07:12:19.616Z,1692.00
2019-02-16T07:13:19.590Z,1736.00
2019-02-16T07:14:19.531Z,1784.00
2019-02-16T07:15:19.489Z,1832.00
2019-02-16T07:16:19.487Z,1880.00
2019-02-16T07:17:19.411Z,1928.00
2019-02-16T07:18:19.367Z,1992.00
2019-02-16T07:19:19.296Z,2072.00
2019-02-16T07:20:19.253Z,2204.00
2019-02-16T07:21:19.213Z,2452.00
2019-02-16T07:22:19.190Z,3228.00
2019-02-16T07:23:22.494Z,4588.00
2019-02-16T07:24:19.077Z,5752.00
2019-02-16T07:25:19.034Z,6316.00
2019-02-16T07:26:19.007Z,6572.00
2019-02-16T07:27:18.938Z,6796.00
2019-02-16T07:28:18.925Z,6984.00
2019-02-16T07:29:18.971Z,7172.00
2019-02-16T07:30:18.808Z,7340.00
2019-02-16T07:31:18.794Z,7544.00
2019-02-16T07:32:18.725Z,7692.00
2019-02-16T07:33:18.717Z,7868.00
2019-02-16T07:34:18.670Z,8088.00
2019-02-16T07:35:18.581Z,8236.00
2019-02-16T07:36:18.547Z,8416.00
2019-02-16T07:37:18.477Z,8560.00
2019-02-16T07:38:18.438Z,8700.00
2019-02-16T07:39:18.456Z,8876.00
2019-02-16T07:40:18.362Z,9024.00
2019-02-16T07:41:18.327Z,9180.00
2019-02-16T07:42:18.294Z,9272.00
2019-02-16T07:43:18.397Z,9444.00
2019-02-16T07:44:18.199Z,9572.00
2019-02-16T07:45:18.185Z,9700.00
2019-02-16T07:46:18.166Z,9860.00
2019-02-16T07:47:18.098Z,9992.00
2019-02-16T07:48:18.015Z,10104.00
2019-02-16T07:49:17.976Z,10232.00
2019-02-16T07:50:17.932Z,10332.00
2019-02-16T07:51:17.891Z,10444.00
2019-02-16T07:52:17.919Z,10516.00
2019-02-16T07:53:17.849Z,10624.00
2019-02-16T07:54:17.773Z,10720.00
2019-02-16T07:55:17.736Z,10848.00
2019-02-16T07:56:17.821Z,10948.00
2019-02-16T07:57:17.723Z,11040.00
2019-02-16T07:58:17.707Z,11116.00
2019-02-16T07:59:17.569Z,11244.00
2019-02-16T08:00:17.561Z,11300.00
2019-02-16T08:01:17.505Z,11364.00
2019-02-16T08:02:17.474Z,11444.00
2019-02-16T08:03:17.412Z,11500.00
2019-02-16T08:04:17.385Z,11564.00
2019-02-16T08:05:17.346Z,11688.00
2019-02-16T08:06:17.311Z,11644.00
2019-02-16T08:07:17.258Z,11708.00
2019-02-16T08:08:17.244Z,11760.00
2019-02-16T08:09:17.191Z,11852.00
2019-02-16T08:10:17.142Z,11960.00
2019-02-16T08:11:17.119Z,12012.00
2019-02-16T08:12:17.063Z,12068.00
2019-02-16T08:13:17.043Z,12204.00
2019-02-16T08:14:17.046Z,12296.00
2019-02-16T08:15:16.961Z,12348.00
2019-02-16T08:16:16.929Z,12400.00
2019-02-16T08:17:16.871Z,12524.00
2019-02-16T08:18:16.852Z,12600.00
2019-02-16T08:19:16.951Z,12648.00
2019-02-16T08:20:16.785Z,12700.00
2019-02-16T08:21:16.731Z,12760.00
2019-02-16T08:22:16.719Z,12808.00
2019-02-16T08:23:16.654Z,12880.00
2019-02-16T08:24:16.637Z,12948.00
2019-02-16T08:25:16.589Z,13008.00
2019-02-16T08:26:16.550Z,13088.00
2019-02-16T08:27:16.520Z,13140.00
2019-02-16T08:28:16.484Z,13184.00
2019-02-16T08:29:16.446Z,13244.00
2019-02-16T08:30:16.381Z,13372.00
2019-02-16T08:31:16.363Z,13384.00
2019-02-16T08:32:16.326Z,13460.00
2019-02-16T08:33:16.273Z,13540.00
2019-02-16T08:34:16.239Z,13548.00
2019-02-16T08:35:16.197Z,13600.00
2019-02-16T08:36:16.182Z,13696.00
2019-02-16T08:37:16.135Z,13744.00
2019-02-16T08:38:16.100Z,13744.00
2019-02-16T08:39:16.061Z,13832.00
2019-02-16T08:40:16.038Z,13876.00
2019-02-16T08:41:15.963Z,13900.00
2019-02-16T08:42:15.975Z,14096.00
2019-02-16T08:43:15.900Z,14164.00
2019-02-16T08:44:15.883Z,14264.00
2019-02-16T08:45:15.839Z,14328.00
2019-02-16T08:46:15.804Z,14324.00
2019-02-16T08:47:15.778Z,14428.00
2019-02-16T08:48:15.705Z,14472.00
2019-02-16T08:49:15.704Z,14516.00
2019-02-16T08:50:15.650Z,14528.00
2019-02-16T08:51:15.618Z,14560.00
2019-02-16T08:52:15.568Z,14596.00
2019-02-16T08:53:15.555Z,14748.00
2019-02-16T08:54:15.548Z,14672.00
2019-02-16T08:55:15.485Z,14752.00
2019-02-16T08:56:15.421Z,14712.00
2019-02-16T08:57:15.398Z,14728.00
2019-02-16T08:58:15.377Z,14740.00
2019-02-16T08:59:15.328Z,14112.00
2019-02-16T09:00:15.297Z,14168.00
2019-02-16T09:01:15.223Z,14176.00
2019-02-16T09:02:15.193Z,14192.00
2019-02-16T09:03:15.159Z,14572.00
2019-02-16T09:04:15.140Z,14764.00
2019-02-16T09:05:15.089Z,14676.00
2019-02-16T09:06:15.074Z,14652.00
2019-02-16T09:07:15.011Z,14604.00
2019-02-16T09:08:14.992Z,14564.00
2019-02-16T09:09:14.935Z,14632.00
2019-02-16T09:10:14.905Z,14752.00
2019-02-16T09:11:14.874Z,14804.00
2019-02-16T09:12:14.830Z,14852.00
2019-02-16T09:13:14.820Z,14868.00
2019-02-16T09:14:14.757Z,14872.00
2019-02-16T09:15:14.733Z,14884.00
2019-02-16T09:16:14.686Z,14868.00
2019-02-16T09:17:14.654Z,14872.00
2019-02-16T09:18:14.655Z,14884.00
2019-02-16T09:19:14.569Z,14920.00
2019-02-16T09:20:14.552Z,14920.00
2019-02-16T09:21:15.190Z,14928.00
2019-02-16T09:22:14.499Z,14900.00
2019-02-16T09:23:14.475Z,14912.00
2019-02-16T09:24:14.428Z,14928.00
2019-02-16T09:25:14.384Z,14928.00
2019-02-16T09:26:14.339Z,14956.00
2019-02-16T09:27:14.298Z,14916.00
2019-02-16T09:28:14.277Z,14896.00
2019-02-16T09:29:14.276Z,14924.00
2019-02-16T09:30:14.207Z,14968.00
2019-02-16T09:31:14.191Z,14924.00
2019-02-16T09:32:14.136Z,14952.00
2019-02-16T09:33:14.117Z,14888.00
2019-02-16T09:34:14.058Z,14912.00
2019-02-16T09:35:14.015Z,14944.00
2019-02-16T09:36:14.036Z,14968.00
2019-02-16T09:37:13.970Z,14948.00
2019-02-16T09:38:13.928Z,14972.00
2019-02-16T09:39:13.901Z,14908.00
2019-02-16T09:40:13.873Z,14892.00
2019-02-16T09:41:13.826Z,14920.00
2019-02-16T09:42:13.781Z,14900.00
2019-02-16T09:43:13.778Z,14856.00
2019-02-16T09:44:13.747Z,14868.00
2019-02-16T09:45:13.675Z,14900.00
2019-02-16T09:46:13.644Z,14888.00
2019-02-16T09:47:13.655Z,14884.00
2019-02-16T09:48:13.590Z,14812.00
2019-02-16T09:49:13.540Z,14828.00
2019-02-16T09:50:13.521Z,14868.00
2019-02-16T09:51:13.473Z,14892.00
2019-02-16T09:52:13.452Z,14860.00
2019-02-16T09:53:13.446Z,14716.00
2019-02-16T09:54:13.397Z,14464.00
2019-02-16T09:55:13.360Z,14168.00
2019-02-16T09:56:13.322Z,13868.00
2019-02-16T09:57:13.331Z,13768.00
2019-02-16T09:58:13.465Z,13708.00
2019-02-16T09:59:13.347Z,13716.00
2019-02-16T10:00:13.997Z,13688.00
2019-02-16T10:01:13.142Z,13608.00
2019-02-16T10:02:13.182Z,13552.00
2019-02-16T10:03:13.136Z,13580.00
2019-02-16T10:04:13.097Z,13536.00
2019-02-16T10:05:13.032Z,13496.00
2019-02-16T10:06:13.022Z,13504.00
2019-02-16T10:07:12.967Z,13432.00
2019-02-16T10:08:12.955Z,13444.00
2019-02-16T10:09:12.894Z,13364.00
2019-02-16T10:10:12.869Z,13308.00
2019-02-16T10:11:12.845Z,13260.00
2019-02-16T10:12:12.841Z,13200.00
2019-02-16T10:13:12.785Z,13212.00
2019-02-16T10:14:12.820Z,13220.00
2019-02-16T10:15:12.742Z,13212.00
2019-02-16T10:16:12.683Z,13164.00
2019-02-16T10:17:12.641Z,13128.00
2019-02-16T10:18:12.602Z,13096.00
2019-02-16T10:19:12.559Z,13100.00
2019-02-16T10:20:12.535Z,13060.00
2019-02-16T10:21:12.510Z,13072.00
2019-02-16T10:22:12.470Z,13012.00
2019-02-16T10:23:12.424Z,12972.00
2019-02-16T10:24:17.939Z,12924.00
2019-02-16T10:25:12.554Z,12900.00
2019-02-16T10:26:12.379Z,12824.00
2019-02-16T10:27:12.293Z,12776.00
2019-02-16T10:28:12.285Z,12780.00
2019-02-16T10:29:12.241Z,12772.00
2019-02-16T10:30:12.181Z,12708.00
2019-02-16T10:31:12.170Z,12680.00
2019-02-16T10:32:12.162Z,12644.00
2019-02-16T10:33:12.086Z,12644.00
2019-02-16T10:34:12.055Z,12620.00
2019-02-16T10:35:12.032Z,12584.00
2019-02-16T10:36:12.011Z,12532.00
2019-02-16T10:37:11.973Z,12504.00
2019-02-16T10:38:11.914Z,12476.00
2019-02-16T10:39:11.900Z,12452.00
2019-02-16T10:40:11.860Z,12400.00
2019-02-16T10:41:11.833Z,12340.00
2019-02-16T10:42:11.811Z,12320.00
2019-02-16T10:43:11.758Z,12280.00
2019-02-16T10:44:11.728Z,12260.00
2019-02-16T10:45:11.690Z,12224.00
2019-02-16T10:46:11.702Z,12204.00
2019-02-16T10:47:11.640Z,12196.00
2019-02-16T10:48:11.568Z,12052.00
2019-02-16T10:49:11.551Z,12064.00
2019-02-16T10:50:11.523Z,12028.00
2019-02-16T10:51:11.521Z,12004.00
2019-02-16T10:52:11.462Z,11976.00
2019-02-16T10:53:11.440Z,11952.00
2019-02-16T10:54:11.453Z,11940.00
2019-02-16T10:55:11.360Z,11916.00
2019-02-16T10:56:11.354Z,11876.00
2019-02-16T10:57:11.297Z,11828.00
2019-02-16T10:58:11.306Z,11800.00
2019-02-16T10:59:11.213Z,11720.00
2019-02-16T11:00:11.204Z,11660.00
2019-02-16T11:01:11.166Z,11664.00
2019-02-16T11:02:11.150Z,11620.00
2019-02-16T11:03:11.144Z,11584.00
2019-02-16T11:04:11.060Z,11568.00
2019-02-16T11:05:11.037Z,11520.00
2019-02-16T11:06:10.998Z,11464.00
2019-02-16T11:07:10.960Z,11408.00
2019-02-16T11:08:10.919Z,11376.00
2019-02-16T11:09:10.926Z,11348.00
2019-02-16T11:10:10.851Z,11328.00
2019-02-16T11:11:10.825Z,11292.00
2019-02-16T11:12:10.804Z,11236.00
2019-02-16T11:13:10.762Z,11200.00
2019-02-16T11:14:10.734Z,11192.00
2019-02-16T11:15:10.763Z,11144.00
2019-02-16T11:16:10.663Z,11092.00
2019-02-16T11:17:10.617Z,10980.00
2019-02-16T11:18:10.622Z,10980.00
2019-02-16T11:19:10.564Z,10896.00
2019-02-16T11:20:10.555Z,10876.00
2019-02-16T11:21:10.494Z,10872.00
2019-02-16T11:22:10.480Z,10848.00
2019-02-16T11:23:10.425Z,10772.00
2019-02-16T11:24:10.390Z,10768.00
2019-02-16T11:25:10.353Z,10688.00
2019-02-16T11:26:10.359Z,10676.00
2019-02-16T11:27:10.298Z,10632.00
2019-02-16T11:28:10.303Z,10600.00
2019-02-16T11:29:11.147Z,10612.00
2019-02-16T11:30:10.198Z,10540.00
2019-02-16T11:31:10.153Z,10532.00
2019-02-16T11:32:10.179Z,10492.00
2019-02-16T11:33:10.133Z,10484.00
2019-02-16T11:34:10.060Z,10468.00
2019-02-16T11:35:10.417Z,10432.00
2019-02-16T11:36:09.997Z,10452.00
2019-02-16T11:37:09.984Z,10456.00
2019-02-16T11:38:09.942Z,10456.00
2019-02-16T11:39:09.924Z,10380.00
2019-02-16T11:40:09.868Z,10352.00
2019-02-16T11:41:16.890Z,10364.00
2019-02-16T11:42:09.818Z,10372.00
2019-02-16T11:43:09.772Z,10380.00
2019-02-16T11:44:09.771Z,10276.00
2019-02-16T11:45:09.709Z,10256.00
2019-02-16T11:46:09.668Z,10008.00
2019-02-16T11:47:09.670Z,10088.00
2019-02-16T11:48:09.629Z,10044.00
2019-02-16T11:49:09.609Z,9996.00
2019-02-16T11:50:09.549Z,9948.00
2019-02-16T11:51:09.495Z,10028.00
2019-02-16T11:52:09.468Z,10036.00
2019-02-16T11:53:09.464Z,10036.00
2019-02-16T11:54:09.439Z,10000.00
2019-02-16T11:55:09.373Z,9920.00
2019-02-16T11:56:09.343Z,9904.00
2019-02-16T11:57:09.317Z,9892.00
2019-02-16T11:58:09.287Z,9748.00
2019-02-16T11:59:09.253Z,9728.00
2019-02-16T12:00:09.246Z,9608.00
2019-02-16T12:01:09.214Z,9624.00
2019-02-16T12:02:09.165Z,9672.00
2019-02-16T12:03:09.117Z,9632.00
2019-02-16T12:04:09.088Z,9576.00
2019-02-16T12:05:09.090Z,9600.00
2019-02-16T12:06:09.035Z,9716.00
2019-02-16T12:07:08.987Z,9484.00
2019-02-16T12:08:08.975Z,9560.00
2019-02-16T12:09:08.944Z,9544.00
2019-02-16T12:10:08.898Z,9504.00
2019-02-16T12:11:08.901Z,9500.00
2019-02-16T12:12:08.865Z,9604.00
2019-02-16T12:13:08.789Z,9612.00
2019-02-16T12:14:08.764Z,9644.00
2019-02-16T12:15:08.742Z,9688.00
2019-02-16T12:16:08.683Z,9720.00
2019-02-16T12:17:08.679Z,9712.00
2019-02-16T12:18:08.619Z,9732.00
2019-02-16T12:19:08.603Z,9700.00
2019-02-16T12:20:08.571Z,9744.00
2019-02-16T12:21:08.570Z,9724.00
2019-02-16T12:22:08.524Z,9660.00
2019-02-16T12:23:08.487Z,9568.00
2019-02-16T12:24:08.435Z,9468.00
2019-02-16T12:25:08.393Z,9520.00
2019-02-16T12:26:08.423Z,9480.00
2019-02-16T12:27:08.344Z,9492.00
2019-02-16T12:28:08.304Z,9536.00
2019-02-16T12:29:08.264Z,9520.00
2019-02-16T12:30:08.226Z,9464.00
2019-02-16T12:31:08.220Z,9464.00
2019-02-16T12:32:08.187Z,9496.00
2019-02-16T12:33:08.131Z,9500.00
2019-02-16T12:34:08.140Z,9380.00